sensor_id;sensor_type;location;lat;lon;timestamp;pressure;altitude;pressure_sealevel;temperature;humidity
76627;BME280;65519;53.230;10.390;2022-12-29T00:01:36;99862.06;;;7.49;90.50
76627;BME280;65519;53.230;10.390;2022-12-29T00:04:02;99869.41;;;7.53;90.27
76627;BME280;65519;53.230;10.390;2022-12-29T00:06:28;99859.94;;;7.56;90.37
76627;BME280;65519;53.230;10.390;2022-12-29T00:08:53;99855.31;;;7.61;90.18
76627;BME280;65519;53.230;10.390;2022-12-29T00:11:21;99862.63;;;7.61;89.99
76627;BME280;65519;53.230;10.390;2022-12-29T00:13:47;99858.31;;;7.65;90.05
76627;BME280;65519;53.230;10.390;2022-12-29T00:16:32;99856.94;;;7.62;90.57
76627;BME280;65519;53.230;10.390;2022-12-29T00:18:58;99850.16;;;7.60;90.52
76627;BME280;65519;53.230;10.390;2022-12-29T00:21:24;99849.38;;;7.64;90.96
76627;BME280;65519;53.230;10.390;2022-12-29T00:24:22;99845.31;;;7.67;90.45
76627;BME280;65519;53.230;10.390;2022-12-29T00:29:40;99835.81;;;7.64;91.08
76627;BME280;65519;53.230;10.390;2022-12-29T00:32:24;99823.31;;;7.63;89.94
76627;BME280;65519;53.230;10.390;2022-12-29T00:35:10;99821.69;;;7.62;90.67
76627;BME280;65519;53.230;10.390;2022-12-29T00:37:46;99812.75;;;7.67;90.11
76627;BME280;65519;53.230;10.390;2022-12-29T00:40:31;99825.22;;;7.73;90.32
76627;BME280;65519;53.230;10.390;2022-12-29T00:43:15;99828.47;;;7.75;90.18
76627;BME280;65519;53.230;10.390;2022-12-29T00:45:59;99821.94;;;7.81;89.70
76627;BME280;65519;53.230;10.390;2022-12-29T00:48:25;99817.34;;;7.87;89.62
76627;BME280;65519;53.230;10.390;2022-12-29T00:51:08;99813.81;;;7.86;89.06
76627;BME280;65519;53.230;10.390;2022-12-29T00:53:34;99814.88;;;7.90;89.12
76627;BME280;65519;53.230;10.390;2022-12-29T00:56:00;99812.16;;;8.00;88.88
76627;BME280;65519;53.230;10.390;2022-12-29T00:58:29;99805.13;;;7.99;88.19
76627;BME280;65519;53.230;10.390;2022-12-29T01:01:05;99803.22;;;7.95;88.85
76627;BME280;65519;53.230;10.390;2022-12-29T01:03:32;99804.56;;;8.02;88.36
76627;BME280;65519;53.230;10.390;2022-12-29T01:06:00;99810.00;;;8.02;88.57
76627;BME280;65519;53.230;10.390;2022-12-29T01:08:27;99797.50;;;8.01;88.55
76627;BME280;65519;53.230;10.390;2022-12-29T01:11:07;99792.06;;;8.01;88.44
76627;BME280;65519;53.230;10.390;2022-12-29T01:13:33;99792.91;;;8.02;88.89
76627;BME280;65519;53.230;10.390;2022-12-29T01:15:59;99791.25;;;8.01;89.49
76627;BME280;65519;53.230;10.390;2022-12-29T01:18:25;99792.09;;;8.06;88.33
76627;BME280;65519;53.230;10.390;2022-12-29T01:20:51;99780.16;;;8.07;88.54
76627;BME280;65519;53.230;10.390;2022-12-29T01:23:22;99779.59;;;8.05;88.94
76627;BME280;65519;53.230;10.390;2022-12-29T01:25:48;99767.34;;;8.13;88.19
76627;BME280;65519;53.230;10.390;2022-12-29T01:28:13;99769.81;;;8.10;88.60
76627;BME280;65519;53.230;10.390;2022-12-29T01:30:39;99772.50;;;8.15;88.86
76627;BME280;65519;53.230;10.390;2022-12-29T01:33:04;99769.25;;;8.18;88.82
76627;BME280;65519;53.230;10.390;2022-12-29T01:35:29;99774.16;;;8.21;87.75
76627;BME280;65519;53.230;10.390;2022-12-29T01:37:55;99765.44;;;8.24;87.89
76627;BME280;65519;53.230;10.390;2022-12-29T01:40:20;99757.28;;;8.24;88.03
76627;BME280;65519;53.230;10.390;2022-12-29T01:42:45;99750.75;;;8.25;88.28
76627;BME280;65519;53.230;10.390;2022-12-29T01:45:13;99734.47;;;8.30;87.50
76627;BME280;65519;53.230;10.390;2022-12-29T01:47:44;99741.25;;;8.27;88.85
76627;BME280;65519;53.230;10.390;2022-12-29T01:50:32;99741.53;;;8.31;88.45
76627;BME280;65519;53.230;10.390;2022-12-29T01:55:44;99755.09;;;8.36;87.42
76627;BME280;65519;53.230;10.390;2022-12-29T01:58:13;99751.56;;;8.35;88.47
76627;BME280;65519;53.230;10.390;2022-12-29T02:00:40;99754.53;;;8.44;88.28
76627;BME280;65519;53.230;10.390;2022-12-29T02:03:06;99757.81;;;8.41;87.86
76627;BME280;65519;53.230;10.390;2022-12-29T02:05:38;99762.16;;;8.42;87.79
76627;BME280;65519;53.230;10.390;2022-12-29T02:08:05;99734.47;;;8.40;88.50
76627;BME280;65519;53.230;10.390;2022-12-29T02:10:32;99748.59;;;8.42;88.07
76627;BME280;65519;53.230;10.390;2022-12-29T02:12:58;99739.34;;;8.43;88.06
76627;BME280;65519;53.230;10.390;2022-12-29T02:18:21;99732.78;;;8.44;88.42
76627;BME280;65519;53.230;10.390;2022-12-29T02:32:05;99716.75;;;8.53;87.83
76627;BME280;65519;53.230;10.390;2022-12-29T02:40:40;99706.09;;;8.61;87.16
76627;BME280;65519;53.230;10.390;2022-12-29T02:45:56;99718.06;;;8.60;87.21
76627;BME280;65519;53.230;10.390;2022-12-29T02:51:03;99701.72;;;8.70;86.54
76627;BME280;65519;53.230;10.390;2022-12-29T02:53:32;99706.59;;;8.68;86.39
76627;BME280;65519;53.230;10.390;2022-12-29T02:56:18;99703.34;;;8.66;86.86
76627;BME280;65519;53.230;10.390;2022-12-29T02:58:43;99692.47;;;8.71;86.91
76627;BME280;65519;53.230;10.390;2022-12-29T03:06:27;99691.34;;;8.77;86.49
76627;BME280;65519;53.230;10.390;2022-12-29T03:09:35;99685.63;;;8.79;86.27
76627;BME280;65519;53.230;10.390;2022-12-29T03:20:08;99679.63;;;8.82;85.61
76627;BME280;65519;53.230;10.390;2022-12-29T03:22:40;99676.59;;;8.89;86.20
76627;BME280;65519;53.230;10.390;2022-12-29T03:25:37;99666.84;;;8.83;86.10
76627;BME280;65519;53.230;10.390;2022-12-29T03:28:13;99657.91;;;8.77;85.67
76627;BME280;65519;53.230;10.390;2022-12-29T03:30:43;99665.22;;;8.82;85.69
76627;BME280;65519;53.230;10.390;2022-12-29T03:33:11;99652.19;;;8.78;86.30
76627;BME280;65519;53.230;10.390;2022-12-29T03:35:40;99653.28;;;8.77;85.66
76627;BME280;65519;53.230;10.390;2022-12-29T03:40:48;99663.03;;;8.84;86.32
76627;BME280;65519;53.230;10.390;2022-12-29T03:43:15;99644.03;;;8.84;85.77
76627;BME280;65519;53.230;10.390;2022-12-29T03:45:41;99638.88;;;8.82;86.22
76627;BME280;65519;53.230;10.390;2022-12-29T03:48:06;99625.00;;;8.84;86.45
76627;BME280;65519;53.230;10.390;2022-12-29T03:50:31;99622.81;;;8.86;86.73
76627;BME280;65519;53.230;10.390;2022-12-29T03:52:57;99625.84;;;8.79;86.86
76627;BME280;65519;53.230;10.390;2022-12-29T03:55:22;99611.72;;;8.77;86.81
76627;BME280;65519;53.230;10.390;2022-12-29T03:57:48;99609.59;;;8.74;86.93
76627;BME280;65519;53.230;10.390;2022-12-29T04:00:13;99618.19;;;8.86;86.33
76627;BME280;65519;53.230;10.390;2022-12-29T04:02:39;99611.72;;;8.77;86.14
76627;BME280;65519;53.230;10.390;2022-12-29T04:05:05;99612.84;;;8.76;86.73
76627;BME280;65519;53.230;10.390;2022-12-29T04:07:30;99593.97;;;8.90;85.60
76627;BME280;65519;53.230;10.390;2022-12-29T04:09:56;99612.41;;;8.93;86.24
76627;BME280;65519;53.230;10.390;2022-12-29T04:12:21;99625.00;;;8.84;87.21
76627;BME280;65519;53.230;10.390;2022-12-29T04:14:46;99617.13;;;8.82;87.22
76627;BME280;65519;53.230;10.390;2022-12-29T04:17:12;99609.22;;;8.86;87.10
76627;BME280;65519;53.230;10.390;2022-12-29T04:19:37;99608.91;;;8.87;87.44
76627;BME280;65519;53.230;10.390;2022-12-29T04:22:03;99632.59;;;8.87;87.61
76627;BME280;65519;53.230;10.390;2022-12-29T04:24:28;99619.28;;;8.85;88.66
76627;BME280;65519;53.230;10.390;2022-12-29T04:26:53;99621.72;;;8.87;88.27
76627;BME280;65519;53.230;10.390;2022-12-29T04:29:19;99603.25;;;8.84;88.06
76627;BME280;65519;53.230;10.390;2022-12-29T04:31:44;99590.47;;;8.84;89.01
76627;BME280;65519;53.230;10.390;2022-12-29T04:34:10;99601.09;;;8.81;89.67
76627;BME280;65519;53.230;10.390;2022-12-29T04:36:35;99604.38;;;8.77;88.87
76627;BME280;65519;53.230;10.390;2022-12-29T04:39:00;99591.31;;;8.79;89.28
76627;BME280;65519;53.230;10.390;2022-12-29T04:41:26;99589.66;;;8.84;89.47
76627;BME280;65519;53.230;10.390;2022-12-29T04:43:51;99585.66;;;8.76;89.66
76627;BME280;65519;53.230;10.390;2022-12-29T04:46:16;99591.38;;;8.74;90.16
76627;BME280;65519;53.230;10.390;2022-12-29T04:48:42;99586.44;;;8.76;90.14
76627;BME280;65519;53.230;10.390;2022-12-29T04:51:07;99584.84;;;8.75;90.67
76627;BME280;65519;53.230;10.390;2022-12-29T04:53:33;99571.78;;;8.77;90.46
76627;BME280;65519;53.230;10.390;2022-12-29T04:55:58;99578.81;;;8.84;90.14
76627;BME280;65519;53.230;10.390;2022-12-29T04:58:23;99581.75;;;8.87;89.63
76627;BME280;65519;53.230;10.390;2022-12-29T05:00:50;99579.34;;;8.86;90.64
76627;BME280;65519;53.230;10.390;2022-12-29T05:03:15;99576.03;;;8.89;90.53
76627;BME280;65519;53.230;10.390;2022-12-29T05:05:41;99571.41;;;8.89;89.59
76627;BME280;65519;53.230;10.390;2022-12-29T05:08:06;99560.25;;;8.91;90.50
76627;BME280;65519;53.230;10.390;2022-12-29T05:10:31;99560.25;;;8.91;90.27
76627;BME280;65519;53.230;10.390;2022-12-29T05:12:57;99564.03;;;8.95;89.81
76627;BME280;65519;53.230;10.390;2022-12-29T05:15:23;99560.25;;;8.91;90.26
76627;BME280;65519;53.230;10.390;2022-12-29T05:17:48;99569.47;;;8.95;89.85
76627;BME280;65519;53.230;10.390;2022-12-29T05:20:15;99570.00;;;8.97;89.44
76627;BME280;65519;53.230;10.390;2022-12-29T05:22:41;99578.09;;;9.02;88.69
76627;BME280;65519;53.230;10.390;2022-12-29T05:25:06;99578.66;;;8.99;89.46
76627;BME280;65519;53.230;10.390;2022-12-29T05:27:32;99579.16;;;9.06;89.26
76627;BME280;65519;53.230;10.390;2022-12-29T05:29:57;99577.00;;;9.03;88.86
76627;BME280;65519;53.230;10.390;2022-12-29T05:32:23;99576.97;;;9.08;88.47
76627;BME280;65519;53.230;10.390;2022-12-29T05:34:48;99576.47;;;9.01;89.31
76627;BME280;65519;53.230;10.390;2022-12-29T05:37:14;99574.53;;;9.06;88.30
76627;BME280;65519;53.230;10.390;2022-12-29T05:39:40;99567.75;;;9.04;88.68
76627;BME280;65519;53.230;10.390;2022-12-29T05:42:05;99577.53;;;9.05;88.79
76627;BME280;65519;53.230;10.390;2022-12-29T05:44:30;99575.34;;;9.07;88.76
76627;BME280;65519;53.230;10.390;2022-12-29T05:46:56;99571.53;;;9.08;89.25
76627;BME280;65519;53.230;10.390;2022-12-29T05:49:21;99579.97;;;9.06;88.13
76627;BME280;65519;53.230;10.390;2022-12-29T05:51:46;99571.00;;;9.06;89.00
76627;BME280;65519;53.230;10.390;2022-12-29T05:54:12;99574.81;;;9.05;89.01
76627;BME280;65519;53.230;10.390;2022-12-29T05:56:37;99561.69;;;9.12;88.41
76627;BME280;65519;53.230;10.390;2022-12-29T05:59:03;99565.50;;;9.11;88.70
76627;BME280;65519;53.230;10.390;2022-12-29T06:01:28;99568.22;;;9.11;87.93
76627;BME280;65519;53.230;10.390;2022-12-29T06:03:53;99570.91;;;9.16;87.87
76627;BME280;65519;53.230;10.390;2022-12-29T06:06:19;99574.72;;;9.15;87.68
76627;BME280;65519;53.230;10.390;2022-12-29T06:08:44;99566.56;;;9.15;87.79
76627;BME280;65519;53.230;10.390;2022-12-29T06:11:10;99564.91;;;9.19;87.24
76627;BME280;65519;53.230;10.390;2022-12-29T06:13:35;99563.16;;;9.28;87.48
76627;BME280;65519;53.230;10.390;2022-12-29T06:16:01;99570.78;;;9.26;87.16
76627;BME280;65519;53.230;10.390;2022-12-29T06:18:26;99552.31;;;9.23;87.46
76627;BME280;65519;53.230;10.390;2022-12-29T06:20:51;99543.59;;;9.26;86.41
76627;BME280;65519;53.230;10.390;2022-12-29T06:23:17;99552.56;;;9.27;87.19
76627;BME280;65519;53.230;10.390;2022-12-29T06:25:43;99550.13;;;9.25;87.12
76627;BME280;65519;53.230;10.390;2022-12-29T06:28:09;99551.47;;;9.28;86.60
76627;BME280;65519;53.230;10.390;2022-12-29T06:30:36;99545.16;;;9.32;85.58
76627;BME280;65519;53.230;10.390;2022-12-29T06:33:01;99559.03;;;9.31;85.87
76627;BME280;65519;53.230;10.390;2022-12-29T06:35:27;99554.41;;;9.31;85.78
76627;BME280;65519;53.230;10.390;2022-12-29T06:37:52;99561.25;;;9.29;86.17
76627;BME280;65519;53.230;10.390;2022-12-29T06:40:17;99556.63;;;9.29;85.89
76627;BME280;65519;53.230;10.390;2022-12-29T06:42:43;99550.59;;;9.32;85.83
76627;BME280;65519;53.230;10.390;2022-12-29T06:45:09;99544.81;;;9.39;85.64
76627;BME280;65519;53.230;10.390;2022-12-29T06:47:34;99539.09;;;9.40;85.25
76627;BME280;65519;53.230;10.390;2022-12-29T06:50:00;99535.25;;;9.41;84.68
76627;BME280;65519;53.230;10.390;2022-12-29T06:52:26;99534.97;;;9.43;85.41
76627;BME280;65519;53.230;10.390;2022-12-29T06:54:51;99540.13;;;9.44;85.21
76627;BME280;65519;53.230;10.390;2022-12-29T06:57:16;99528.59;;;9.52;84.29
76627;BME280;65519;53.230;10.390;2022-12-29T06:59:42;99524.78;;;9.53;84.16
76627;BME280;65519;53.230;10.390;2022-12-29T07:02:10;99512.75;;;9.60;83.59
76627;BME280;65519;53.230;10.390;2022-12-29T07:04:35;99522.59;;;9.56;84.01
76627;BME280;65519;53.230;10.390;2022-12-29T07:07:01;99517.38;;;9.59;83.62
76627;BME280;65519;53.230;10.390;2022-12-29T07:09:26;99524.50;;;9.55;84.01
76627;BME280;65519;53.230;10.390;2022-12-29T07:11:51;99523.91;;;9.58;84.21
76627;BME280;65519;53.230;10.390;2022-12-29T07:14:16;99524.44;;;9.60;83.26
76627;BME280;65519;53.230;10.390;2022-12-29T07:16:45;99516.81;;;9.62;83.86
76627;BME280;65519;53.230;10.390;2022-12-29T07:19:10;99518.94;;;9.65;83.83
76627;BME280;65519;53.230;10.390;2022-12-29T07:21:35;99524.09;;;9.67;83.86
76627;BME280;65519;53.230;10.390;2022-12-29T07:24:01;99519.00;;;9.60;84.92
76627;BME280;65519;53.230;10.390;2022-12-29T07:26:26;99532.66;;;9.55;84.39
76627;BME280;65519;53.230;10.390;2022-12-29T07:28:52;99550.03;;;9.59;84.82
76627;BME280;65519;53.230;10.390;2022-12-29T07:31:19;99555.22;;;9.56;85.49
76627;BME280;65519;53.230;10.390;2022-12-29T07:33:45;99550.59;;;9.56;85.41
76627;BME280;65519;53.230;10.390;2022-12-29T07:36:11;99563.16;;;9.52;85.69
76627;BME280;65519;53.230;10.390;2022-12-29T07:38:37;99581.91;;;9.53;85.83
76627;BME280;65519;53.230;10.390;2022-12-29T07:41:03;99572.66;;;9.55;85.09
76627;BME280;65519;53.230;10.390;2022-12-29T07:43:28;99587.34;;;9.53;85.96
76627;BME280;65519;53.230;10.390;2022-12-29T07:45:54;99584.13;;;9.51;86.98
76627;BME280;65519;53.230;10.390;2022-12-29T07:48:19;99589.34;;;9.48;87.63
76627;BME280;65519;53.230;10.390;2022-12-29T07:50:45;99573.88;;;9.43;86.98
76627;BME280;65519;53.230;10.390;2022-12-29T07:53:10;99579.53;;;9.47;87.19
76627;BME280;65519;53.230;10.390;2022-12-29T07:55:36;99568.41;;;9.43;86.56
76627;BME280;65519;53.230;10.390;2022-12-29T07:58:01;99569.84;;;9.41;86.75
76627;BME280;65519;53.230;10.390;2022-12-29T08:00:27;99577.69;;;9.42;86.81
76627;BME280;65519;53.230;10.390;2022-12-29T08:02:53;99575.56;;;9.39;86.22
76627;BME280;65519;53.230;10.390;2022-12-29T08:05:18;99571.78;;;9.35;87.27
76627;BME280;65519;53.230;10.390;2022-12-29T08:07:45;99585.94;;;9.32;86.62
76627;BME280;65519;53.230;10.390;2022-12-29T08:10:10;99597.63;;;9.33;86.33
76627;BME280;65519;53.230;10.390;2022-12-29T08:12:39;99588.13;;;9.30;86.54
76627;BME280;65519;53.230;10.390;2022-12-29T08:15:06;99603.66;;;9.30;86.49
76627;BME280;65519;53.230;10.390;2022-12-29T08:17:32;99593.13;;;9.23;86.83
76627;BME280;65519;53.230;10.390;2022-12-29T08:19:58;99606.44;;;9.25;86.92
76627;BME280;65519;53.230;10.390;2022-12-29T08:22:23;99620.28;;;9.28;85.99
76627;BME280;65519;53.230;10.390;2022-12-29T08:24:49;99613.22;;;9.27;86.15
76627;BME280;65519;53.230;10.390;2022-12-29T08:27:15;99619.50;;;9.23;85.55
76627;BME280;65519;53.230;10.390;2022-12-29T08:29:40;99622.00;;;9.19;86.13
76627;BME280;65519;53.230;10.390;2022-12-29T08:32:05;99628.00;;;9.16;86.07
76627;BME280;65519;53.230;10.390;2022-12-29T08:34:31;99631.47;;;9.22;84.96
76627;BME280;65519;53.230;10.390;2022-12-29T08:36:57;99636.09;;;9.21;84.22
76627;BME280;65519;53.230;10.390;2022-12-29T08:39:22;99643.16;;;9.22;84.44
76627;BME280;65519;53.230;10.390;2022-12-29T08:41:47;99649.66;;;9.26;84.83
76627;BME280;65519;53.230;10.390;2022-12-29T08:44:13;99646.41;;;9.24;84.39
76627;BME280;65519;53.230;10.390;2022-12-29T08:46:38;99633.63;;;9.25;84.17
76627;BME280;65519;53.230;10.390;2022-12-29T08:49:04;99629.53;;;9.27;84.95
76627;BME280;65519;53.230;10.390;2022-12-29T08:51:29;99620.03;;;9.25;84.49
76627;BME280;65519;53.230;10.390;2022-12-29T08:53:54;99629.00;;;9.25;84.55
76627;BME280;65519;53.230;10.390;2022-12-29T08:56:20;99623.50;;;9.30;83.46
76627;BME280;65519;53.230;10.390;2022-12-29T08:58:45;99633.00;;;9.33;83.61
76627;BME280;65519;53.230;10.390;2022-12-29T09:01:11;99649.00;;;9.39;82.48
76627;BME280;65519;53.230;10.390;2022-12-29T09:03:37;99638.59;;;9.46;82.39
76627;BME280;65519;53.230;10.390;2022-12-29T09:06:02;99647.03;;;9.45;82.72
76627;BME280;65519;53.230;10.390;2022-12-29T09:08:28;99640.25;;;9.42;82.52
76627;BME280;65519;53.230;10.390;2022-12-29T09:10:53;99651.72;;;9.39;83.15
76627;BME280;65519;53.230;10.390;2022-12-29T09:13:19;99644.69;;;9.33;82.98
76627;BME280;65519;53.230;10.390;2022-12-29T09:15:44;99647.97;;;9.30;82.15
76627;BME280;65519;53.230;10.390;2022-12-29T09:18:11;99650.19;;;9.28;82.64
76627;BME280;65519;53.230;10.390;2022-12-29T09:20:37;99640.31;;;9.37;82.58
76627;BME280;65519;53.230;10.390;2022-12-29T09:23:02;99642.13;;;9.47;81.96
76627;BME280;65519;53.230;10.390;2022-12-29T09:25:28;99639.63;;;9.50;81.72
76627;BME280;65519;53.230;10.390;2022-12-29T09:27:54;99638.75;;;9.55;81.99
76627;BME280;65519;53.230;10.390;2022-12-29T09:30:21;99631.47;;;9.50;82.37
76627;BME280;65519;53.230;10.390;2022-12-29T09:32:47;99637.78;;;9.46;82.67
76627;BME280;65519;53.230;10.390;2022-12-29T09:35:14;99651.78;;;9.58;81.43
76627;BME280;65519;53.230;10.390;2022-12-29T09:37:40;99649.59;;;9.60;81.54
76627;BME280;65519;53.230;10.390;2022-12-29T09:40:07;99637.63;;;9.61;81.70
76627;BME280;65519;53.230;10.390;2022-12-29T09:47:59;99657.47;;;9.62;82.14
76627;BME280;65519;53.230;10.390;2022-12-29T09:50:33;99662.81;;;9.72;81.20
76627;BME280;65519;53.230;10.390;2022-12-29T09:53:04;99668.59;;;9.65;81.84
76627;BME280;65519;53.230;10.390;2022-12-29T09:55:48;99677.97;;;9.78;80.65
76627;BME280;65519;53.230;10.390;2022-12-29T09:58:35;99673.69;;;9.96;80.88
76627;BME280;65519;53.230;10.390;2022-12-29T10:03:48;99681.94;;;10.14;79.34
76627;BME280;65519;53.230;10.390;2022-12-29T10:06:32;99686.53;;;10.19;79.11
76627;BME280;65519;53.230;10.390;2022-12-29T10:22:37;99647.25;;;10.44;76.19
76627;BME280;65519;53.230;10.390;2022-12-29T10:25:15;99648.16;;;10.58;75.27
76627;BME280;65519;53.230;10.390;2022-12-29T10:27:41;99661.78;;;10.58;75.48
76627;BME280;65519;53.230;10.390;2022-12-29T10:30:11;99668.03;;;10.77;73.71
76627;BME280;65519;53.230;10.390;2022-12-29T10:32:43;99668.56;;;10.79;74.15
76627;BME280;65519;53.230;10.390;2022-12-29T10:35:15;99666.25;;;10.86;73.22
76627;BME280;65519;53.230;10.390;2022-12-29T10:37:56;99670.16;;;10.99;72.50
76627;BME280;65519;53.230;10.390;2022-12-29T10:40:40;99668.53;;;10.98;72.38
76627;BME280;65519;53.230;10.390;2022-12-29T10:43:24;99667.44;;;10.99;72.18
76627;BME280;65519;53.230;10.390;2022-12-29T10:45:52;99671.84;;;10.95;72.00
76627;BME280;65519;53.230;10.390;2022-12-29T10:48:23;99677.09;;;11.10;71.61
76627;BME280;65519;53.230;10.390;2022-12-29T10:50:53;99689.31;;;11.13;71.53
76627;BME280;65519;53.230;10.390;2022-12-29T10:53:25;99676.63;;;11.22;70.64
76627;BME280;65519;53.230;10.390;2022-12-29T10:55:52;99682.56;;;10.91;71.40
76627;BME280;65519;53.230;10.390;2022-12-29T10:58:19;99693.16;;;10.93;72.24
76627;BME280;65519;53.230;10.390;2022-12-29T11:00:51;99690.84;;;11.19;71.06
76627;BME280;65519;53.230;10.390;2022-12-29T11:06:14;99678.25;;;11.04;70.92
76627;BME280;65519;53.230;10.390;2022-12-29T11:09:10;99692.22;;;11.03;70.68
76627;BME280;65519;53.230;10.390;2022-12-29T11:11:37;99692.44;;;10.87;70.74
76627;BME280;65519;53.230;10.390;2022-12-29T11:14:14;99696.13;;;10.78;71.29
76627;BME280;65519;53.230;10.390;2022-12-29T11:16:42;99695.31;;;10.77;71.23
76627;BME280;65519;53.230;10.390;2022-12-29T11:19:24;99691.63;;;10.68;72.17
76627;BME280;65519;53.230;10.390;2022-12-29T11:21:51;99680.03;;;10.95;70.88
76627;BME280;65519;53.230;10.390;2022-12-29T11:24:25;99674.97;;;10.88;70.72
76627;BME280;65519;53.230;10.390;2022-12-29T11:26:53;99674.16;;;10.88;71.02
76627;BME280;65519;53.230;10.390;2022-12-29T11:29:37;99680.78;;;10.82;71.41
76627;BME280;65519;53.230;10.390;2022-12-29T11:34:44;99674.47;;;10.68;71.54
76627;BME280;65519;53.230;10.390;2022-12-29T11:42:03;99673.78;;;10.57;71.96
76627;BME280;65519;53.230;10.390;2022-12-29T11:44:34;99699.25;;;10.47;71.27
76627;BME280;65519;53.230;10.390;2022-12-29T11:47:01;99679.75;;;10.59;71.38
76627;BME280;65519;53.230;10.390;2022-12-29T11:49:26;99674.81;;;10.61;71.46
76627;BME280;65519;53.230;10.390;2022-12-29T11:51:53;99684.78;;;10.71;72.43
76627;BME280;65519;53.230;10.390;2022-12-29T11:54:33;99685.13;;;11.02;71.25
76627;BME280;65519;53.230;10.390;2022-12-29T11:57:10;99679.91;;;10.86;70.63
76627;BME280;65519;53.230;10.390;2022-12-29T11:59:51;99671.72;;;10.86;70.03
76627;BME280;65519;53.230;10.390;2022-12-29T12:04:45;99669.34;;;10.61;70.65
76627;BME280;65519;53.230;10.390;2022-12-29T12:07:13;99672.97;;;10.75;69.59
76627;BME280;65519;53.230;10.390;2022-12-29T12:09:45;99674.75;;;10.66;69.12
76627;BME280;65519;53.230;10.390;2022-12-29T12:12:24;99674.38;;;10.91;68.14
76627;BME280;65519;53.230;10.390;2022-12-29T12:14:55;99671.66;;;10.91;67.33
76627;BME280;65519;53.230;10.390;2022-12-29T12:20:09;99665.84;;;10.79;68.11
76627;BME280;65519;53.230;10.390;2022-12-29T12:22:45;99664.22;;;10.78;67.16
76627;BME280;65519;53.230;10.390;2022-12-29T12:25:57;99675.31;;;10.82;66.59
76627;BME280;65519;53.230;10.390;2022-12-29T12:28:19;99671.72;;;10.86;66.73
76627;BME280;65519;53.230;10.390;2022-12-29T12:30:49;99670.47;;;10.79;66.00
76627;BME280;65519;53.230;10.390;2022-12-29T12:35:48;99671.28;;;10.79;66.29
76627;BME280;65519;53.230;10.390;2022-12-29T12:41:44;99675.56;;;10.67;66.84
76627;BME280;65519;53.230;10.390;2022-12-29T12:44:15;99676.13;;;10.64;66.42
76627;BME280;65519;53.230;10.390;2022-12-29T12:52:26;99679.81;;;10.54;66.89
76627;BME280;65519;53.230;10.390;2022-12-29T13:06:33;99687.56;;;10.66;65.79
76627;BME280;65519;53.230;10.390;2022-12-29T13:22:26;99700.22;;;10.56;67.39
76627;BME280;65519;53.230;10.390;2022-12-29T13:30:28;99706.94;;;10.64;66.67
76627;BME280;65519;53.230;10.390;2022-12-29T13:40:39;99715.25;;;10.54;67.33
76627;BME280;65519;53.230;10.390;2022-12-29T13:43:07;99723.69;;;10.52;66.90
76627;BME280;65519;53.230;10.390;2022-12-29T13:45:34;99721.28;;;10.51;66.93
76627;BME280;65519;53.230;10.390;2022-12-29T13:50:36;99715.53;;;10.52;66.87
76627;BME280;65519;53.230;10.390;2022-12-29T13:56:10;99731.75;;;10.63;67.40
76627;BME280;65519;53.230;10.390;2022-12-29T13:58:53;99757.38;;;10.61;67.09
76627;BME280;65519;53.230;10.390;2022-12-29T14:01:34;99740.75;;;10.63;66.29
76627;BME280;65519;53.230;10.390;2022-12-29T14:04:13;99745.91;;;10.65;66.48
76627;BME280;65519;53.230;10.390;2022-12-29T14:06:39;99737.81;;;10.59;67.16
76627;BME280;65519;53.230;10.390;2022-12-29T14:10:00;99756.66;;;10.56;67.35
76627;BME280;65519;53.230;10.390;2022-12-29T14:12:31;99750.09;;;10.57;67.30
76627;BME280;65519;53.230;10.390;2022-12-29T14:15:14;99756.66;;;10.56;67.38
76627;BME280;65519;53.230;10.390;2022-12-29T14:17:41;99753.97;;;10.51;68.50
76627;BME280;65519;53.230;10.390;2022-12-29T14:20:25;99769.50;;;10.50;67.84
76627;BME280;65519;53.230;10.390;2022-12-29T14:30:59;99762.25;;;10.41;69.77
76627;BME280;65519;53.230;10.390;2022-12-29T14:33:27;99793.69;;;10.33;70.46
76627;BME280;65519;53.230;10.390;2022-12-29T14:35:54;99787.47;;;10.28;71.31
76627;BME280;65519;53.230;10.390;2022-12-29T14:38:25;99800.88;;;10.24;71.11
76627;BME280;65519;53.230;10.390;2022-12-29T14:40:52;99796.28;;;10.19;71.38
76627;BME280;65519;53.230;10.390;2022-12-29T14:43:20;99796.84;;;10.16;71.11
76627;BME280;65519;53.230;10.390;2022-12-29T14:46:08;99810.22;;;10.13;71.34
76627;BME280;65519;53.230;10.390;2022-12-29T14:48:38;99826.56;;;10.13;71.91
76627;BME280;65519;53.230;10.390;2022-12-29T14:51:42;99830.13;;;10.08;72.02
76627;BME280;65519;53.230;10.390;2022-12-29T14:54:46;99825.84;;;10.02;72.65
76627;BME280;65519;53.230;10.390;2022-12-29T14:59:54;99849.28;;;9.98;72.73
76627;BME280;65519;53.230;10.390;2022-12-29T15:02:25;99845.03;;;9.87;73.41
76627;BME280;65519;53.230;10.390;2022-12-29T15:04:51;99848.91;;;9.76;74.60
76627;BME280;65519;53.230;10.390;2022-12-29T15:07:18;99851.09;;;9.74;74.80
76627;BME280;65519;53.230;10.390;2022-12-29T15:09:50;99846.56;;;9.64;74.65
76627;BME280;65519;53.230;10.390;2022-12-29T15:17:32;99877.66;;;9.53;75.96
76627;BME280;65519;53.230;10.390;2022-12-29T15:20:16;99887.22;;;9.45;76.21
76627;BME280;65519;53.230;10.390;2022-12-29T15:22:54;99895.13;;;9.42;75.43
76627;BME280;65519;53.230;10.390;2022-12-29T15:25:21;99889.72;;;9.37;75.86
76627;BME280;65519;53.230;10.390;2022-12-29T15:27:51;99902.50;;;9.36;74.47
76627;BME280;65519;53.230;10.390;2022-12-29T15:30:17;99899.81;;;9.31;74.13
76627;BME280;65519;53.230;10.390;2022-12-29T15:32:44;99908.28;;;9.30;74.22
76627;BME280;65519;53.230;10.390;2022-12-29T15:35:32;99918.34;;;9.29;74.28
76627;BME280;65519;53.230;10.390;2022-12-29T15:37:58;99928.66;;;9.27;74.15
76627;BME280;65519;53.230;10.390;2022-12-29T15:40:28;99923.22;;;9.27;74.78
76627;BME280;65519;53.230;10.390;2022-12-29T15:45:41;99931.41;;;9.22;74.60
76627;BME280;65519;53.230;10.390;2022-12-29T15:48:15;99942.53;;;9.26;74.72